createdAt,value
2022-11-07T00:04:12.372Z,100247.50
2022-11-07T00:10:58.125Z,100241.66
2022-11-07T00:17:46.103Z,100236.50
2022-11-07T00:24:31.503Z,100248.13
2022-11-07T00:31:18.664Z,100248.72
2022-11-07T00:38:06.683Z,100254.84
2022-11-07T00:44:52.314Z,100273.03
2022-11-07T00:51:37.879Z,100267.84
2022-11-07T00:58:25.882Z,100264.59
2022-11-07T01:05:14.428Z,100282.72
2022-11-07T01:11:59.823Z,100280.66
2022-11-07T01:18:47.748Z,100293.47
2022-11-07T01:25:33.145Z,100301.72
2022-11-07T01:32:18.524Z,100302.84
2022-11-07T01:39:08.823Z,100298.66
2022-11-07T01:45:54.196Z,100306.09
2022-11-07T01:52:44.007Z,100291.66
2022-11-07T01:59:35.333Z,100278.97
2022-11-07T02:06:27.895Z,100296.47
2022-11-07T02:13:21.042Z,100298.59
2022-11-07T02:20:10.707Z,100276.25
2022-11-07T02:26:59.877Z,100235.28
2022-11-07T02:33:45.257Z,100289.19
2022-11-07T02:40:33.085Z,100269.59
2022-11-07T02:47:21.366Z,100276.53
2022-11-07T02:54:07.108Z,100278.19
2022-11-07T03:00:52.741Z,100265.69
2022-11-07T03:07:40.818Z,100258.06
2022-11-07T03:14:26.197Z,100278.03
2022-11-07T03:21:11.636Z,100260.03
2022-11-07T03:27:59.579Z,100279.28
2022-11-07T03:34:45.011Z,100293.91
2022-11-07T03:41:30.430Z,100297.69
2022-11-07T04:02:06.970Z,100284.31
2022-11-07T04:08:52.453Z,100305.38
2022-11-07T04:15:50.423Z,100340.09
2022-11-07T04:22:38.392Z,100327.75
2022-11-07T04:29:23.726Z,100330.88
2022-11-07T04:36:09.972Z,100321.94
2022-11-07T04:42:59.362Z,100319.56
2022-11-07T04:49:44.770Z,100328.88
2022-11-07T04:56:34.304Z,100330.50
2022-11-07T05:03:22.555Z,100322.56
2022-11-07T05:10:12.106Z,100317.56
2022-11-07T05:16:58.537Z,100326.88
2022-11-07T05:23:46.520Z,100319.75
2022-11-07T05:30:32.063Z,100323.25
2022-11-07T05:37:18.232Z,100333.44
2022-11-07T05:44:06.221Z,100304.69
2022-11-07T05:50:51.623Z,100346.09
2022-11-07T05:57:37.037Z,100337.44
2022-11-07T06:04:25.391Z,100319.91
2022-11-07T06:11:10.760Z,100330.56
2022-11-07T06:17:56.346Z,100332.31
2022-11-07T06:24:44.322Z,100337.97
2022-11-07T06:31:29.716Z,100345.41
2022-11-07T06:38:17.255Z,100322.44
2022-11-07T06:45:05.480Z,100373.97
2022-11-07T06:51:50.935Z,100372.53
2022-11-07T06:58:36.616Z,100383.38
2022-11-07T07:05:24.926Z,100382.75
2022-11-07T07:12:12.899Z,100378.72
2022-11-07T07:18:58.248Z,100410.06
2022-11-07T07:25:46.166Z,100414.94
2022-11-07T07:32:31.580Z,100411.38
2022-11-07T07:39:16.935Z,100425.38
2022-11-07T07:46:07.844Z,100422.81
2022-11-07T07:52:57.901Z,100435.50
2022-11-07T07:59:43.295Z,100439.75
2022-11-07T08:06:32.500Z,100432.16
2022-11-07T08:13:18.265Z,100433.47
2022-11-07T08:20:05.815Z,100443.44
2022-11-07T08:26:53.797Z,100421.06
2022-11-07T08:33:39.854Z,100440.75
2022-11-07T08:40:25.466Z,100433.47
2022-11-07T08:47:13.478Z,100422.94
2022-11-07T08:53:58.836Z,100427.50
2022-11-07T09:00:44.938Z,100428.69
2022-11-07T09:07:32.980Z,100406.59
2022-11-07T09:14:18.345Z,100433.06
2022-11-07T09:21:03.782Z,100443.13
2022-11-07T09:27:51.732Z,100434.19
2022-11-07T09:34:37.117Z,100439.22
2022-11-07T09:41:41.070Z,100432.25
2022-11-07T09:48:37.000Z,100426.88
2022-11-07T09:55:27.652Z,100452.25
2022-11-07T10:02:19.074Z,100461.19
2022-11-07T10:09:16.833Z,100443.97
2022-11-07T10:16:12.008Z,100440.22
2022-11-07T10:23:11.364Z,100452.25
2022-11-07T10:29:59.488Z,100455.31
2022-11-07T10:36:45.063Z,100482.63
2022-11-07T10:43:37.813Z,100464.44
2022-11-07T10:50:28.819Z,100466.41
2022-11-07T10:57:18.560Z,100471.56
2022-11-07T11:04:04.135Z,100470.53
2022-11-07T11:10:53.141Z,100453.94
2022-11-07T11:17:38.567Z,100468.84
2022-11-07T11:24:37.571Z,100456.44
2022-11-07T11:31:35.850Z,100466.03
2022-11-07T11:38:27.875Z,100447.00
2022-11-07T11:45:21.205Z,100447.38
2022-11-07T11:52:17.080Z,100437.78
2022-11-07T11:59:33.720Z,100448.69
2022-11-07T12:06:21.353Z,100421.06
2022-11-07T12:13:19.575Z,100448.31
2022-11-07T12:20:20.786Z,100426.56
2022-11-07T12:27:21.455Z,100436.28
2022-11-07T12:34:29.841Z,100434.16
2022-11-07T12:41:27.172Z,100428.28
2022-11-07T12:48:36.487Z,100434.28
2022-11-07T12:55:30.285Z,100425.31
2022-11-07T13:02:34.712Z,100404.19
2022-11-07T13:09:30.426Z,100405.16
2022-11-07T13:16:29.199Z,100406.78
2022-11-07T13:23:19.898Z,100422.81
2022-11-07T13:30:22.748Z,100419.56
2022-11-07T13:37:18.840Z,100412.16
2022-11-07T13:44:07.946Z,100400.09
2022-11-07T13:51:04.952Z,100386.25
2022-11-07T13:57:59.088Z,100384.38
2022-11-07T14:12:00.912Z,100393.00
2022-11-07T14:18:53.111Z,100404.34
2022-11-07T14:25:38.723Z,100410.16
2022-11-07T14:32:28.131Z,100410.78
2022-11-07T14:39:22.773Z,100392.66
2022-11-07T14:46:13.856Z,100405.50
2022-11-07T14:53:07.784Z,100407.53
2022-11-07T14:59:55.969Z,100413.94
2022-11-07T15:06:46.711Z,100401.66
2022-11-07T15:13:35.783Z,100414.50
2022-11-07T15:20:34.868Z,100421.72
2022-11-07T15:27:24.199Z,100407.94
2022-11-07T15:34:17.912Z,100415.56
2022-11-07T15:41:11.464Z,100433.94
2022-11-07T15:47:56.828Z,100432.06
2022-11-07T15:54:42.538Z,100435.09
2022-11-07T16:01:31.331Z,100422.28
2022-11-07T16:08:19.907Z,100421.44
2022-11-07T16:15:08.961Z,100435.09
2022-11-07T16:21:57.009Z,100413.81
2022-11-07T16:28:42.500Z,100429.34
2022-11-07T16:35:28.020Z,100413.13
2022-11-07T16:42:18.715Z,100407.66
2022-11-07T16:49:15.687Z,100430.03
2022-11-07T16:56:06.862Z,100437.66
2022-11-07T17:02:55.049Z,100422.44
2022-11-07T17:09:40.652Z,100421.09
2022-11-07T17:16:29.950Z,100434.34
2022-11-07T17:23:18.312Z,100433.25
2022-11-07T17:30:08.302Z,100417.69
2022-11-07T17:36:59.178Z,100428.59
2022-11-07T17:43:47.304Z,100409.00
2022-11-07T17:50:32.995Z,100415.09
2022-11-07T17:57:18.445Z,100444.44
2022-11-07T18:04:07.922Z,100423.84
2022-11-07T18:10:56.493Z,100449.38
2022-11-07T18:17:42.646Z,100446.31
2022-11-07T18:24:30.972Z,100442.09
2022-11-07T18:31:19.103Z,100438.34
2022-11-07T18:38:04.711Z,100434.13
2022-11-07T18:44:52.734Z,100437.09
2022-11-07T18:51:38.853Z,100439.22
2022-11-07T18:58:24.244Z,100435.81
2022-11-07T19:05:12.619Z,100444.44
2022-11-07T19:11:58.528Z,100431.09
2022-11-07T19:18:49.128Z,100432.38
2022-11-07T19:25:37.872Z,100436.47
2022-11-07T19:32:23.228Z,100441.50
2022-11-07T19:39:08.728Z,100430.50
2022-11-07T19:45:56.704Z,100436.97
2022-11-07T19:52:42.181Z,100435.66
2022-11-07T19:59:27.706Z,100435.03
2022-11-07T20:06:18.788Z,100450.47
2022-11-07T20:13:04.325Z,100460.03
2022-11-07T20:19:49.810Z,100454.69
2022-11-07T20:26:39.062Z,100434.53
2022-11-07T20:33:25.231Z,100438.44
2022-11-07T20:40:14.435Z,100443.63
2022-11-07T20:47:02.489Z,100452.72
2022-11-07T20:53:50.359Z,100454.16
2022-11-07T21:00:36.571Z,100444.13
2022-11-07T21:07:25.329Z,100469.78
2022-11-07T21:14:10.742Z,100448.19
2022-11-07T21:20:56.132Z,100372.31
2022-11-07T21:27:44.179Z,100462.63
2022-11-07T21:34:29.531Z,100442.34
2022-11-07T21:41:15.443Z,100434.72
2022-11-07T21:48:03.447Z,100430.00
2022-11-07T21:54:49.762Z,100439.75
2022-11-07T22:01:36.436Z,100430.97
2022-11-07T22:08:24.495Z,100413.59
2022-11-07T22:15:11.476Z,100405.63
2022-11-07T22:21:56.895Z,100404.84
2022-11-07T22:28:46.256Z,100396.50
2022-11-07T22:35:32.208Z,100385.41
2022-11-07T22:42:23.472Z,100382.00
2022-11-07T22:49:12.411Z,100378.72
2022-11-07T22:55:57.788Z,100369.78
2022-11-07T23:02:43.362Z,100365.28
2022-11-07T23:09:31.498Z,100363.13
2022-11-07T23:16:27.444Z,100362.91
2022-11-07T23:23:15.450Z,100348.28
2022-11-07T23:30:03.371Z,100346.97
2022-11-07T23:36:48.977Z,100271.59
2022-11-07T23:43:35.571Z,100350.22
2022-11-07T23:50:36.072Z,100349.56
2022-11-07T23:57:21.704Z,100349.91
